createdAt,value
2022-12-15T00:02:00.647Z,99072.27
2022-12-15T00:04:46.927Z,99076.50
2022-12-15T00:07:34.964Z,99077.45
2022-12-15T00:10:44.972Z,99079.75
2022-12-15T00:13:32.631Z,99078.98
2022-12-15T00:16:24.012Z,99080.88
2022-12-15T00:19:11.416Z,99088.42
2022-12-15T00:21:57.568Z,99083.01
2022-12-15T00:24:43.582Z,99083.20
2022-12-15T00:27:30.534Z,99081.13
2022-12-15T00:30:37.215Z,99091.06
2022-12-15T00:33:29.734Z,99095.39
2022-12-15T00:36:37.193Z,99098.21
2022-12-15T00:39:11.659Z,99097.14
2022-12-15T00:42:04.713Z,99096.79
2022-12-15T00:44:53.822Z,99098.48
2022-12-15T00:47:43.737Z,99105.66
2022-12-15T00:50:50.952Z,99109.52
2022-12-15T00:53:39.300Z,99113.70
2022-12-15T00:56:45.422Z,99118.39
2022-12-15T00:59:54.290Z,99116.75
2022-12-15T01:02:41.095Z,99116.86
2022-12-15T01:05:48.910Z,99118.48
2022-12-15T01:08:54.976Z,99120.88
2022-12-15T01:11:42.165Z,99120.54
2022-12-15T01:14:53.386Z,99120.09
2022-12-15T01:17:42.245Z,99123.54
2022-12-15T01:20:41.733Z,99128.21
2022-12-15T01:23:11.808Z,99127.94
2022-12-15T01:26:02.117Z,99128.15
2022-12-15T01:28:55.656Z,99133.81
2022-12-15T01:31:45.687Z,99141.99
2022-12-15T01:34:41.151Z,99143.27
2022-12-15T01:37:30.893Z,99143.52
2022-12-15T01:40:20.645Z,99144.80
2022-12-15T01:42:54.705Z,99148.79
2022-12-15T01:46:00.480Z,99151.63
2022-12-15T01:48:55.000Z,99158.91
2022-12-15T01:51:55.208Z,99158.47
2022-12-15T01:54:52.463Z,99165.33
2022-12-15T01:57:48.448Z,99169.82
2022-12-15T02:00:18.559Z,99172.96
2022-12-15T02:03:13.261Z,99169.43
2022-12-15T02:06:10.554Z,99173.05
2022-12-15T02:09:01.111Z,99173.44
2022-12-15T02:12:05.333Z,99182.39
2022-12-15T02:15:10.651Z,99190.67
2022-12-15T02:18:13.396Z,99192.96
2022-12-15T02:21:00.481Z,99198.30
2022-12-15T02:23:57.150Z,99195.81
2022-12-15T02:27:24.892Z,99199.79
2022-12-15T02:30:33.392Z,99205.70
2022-12-15T02:33:36.406Z,99201.80
2022-12-15T02:36:34.374Z,99206.81
2022-12-15T02:39:26.213Z,99209.94
2022-12-15T02:42:18.537Z,99213.87
2022-12-15T02:45:12.780Z,99220.23
2022-12-15T02:48:13.190Z,99224.21
2022-12-15T02:51:01.072Z,99231.91
2022-12-15T02:53:51.161Z,99238.68
2022-12-15T02:57:01.798Z,99234.46
2022-12-15T02:59:58.447Z,99238.95
2022-12-15T03:02:58.167Z,99241.36
2022-12-15T03:05:26.811Z,99249.45
2022-12-15T03:08:32.347Z,99259.65
2022-12-15T03:11:22.783Z,99263.05
2022-12-15T03:14:16.866Z,99259.58
2022-12-15T03:17:10.024Z,99264.71
2022-12-15T03:20:01.392Z,99268.69
2022-12-15T03:22:56.193Z,99269.22
2022-12-15T03:25:50.063Z,99275.09
2022-12-15T03:28:22.667Z,99279.77
2022-12-15T03:31:18.711Z,99281.85
2022-12-15T03:34:09.561Z,99277.60
2022-12-15T03:37:01.714Z,99276.91
2022-12-15T03:39:56.005Z,99274.66
2022-12-15T03:42:50.618Z,99270.55
2022-12-15T03:45:45.948Z,99276.58
2022-12-15T03:48:35.338Z,99276.97
2022-12-15T03:51:26.240Z,99282.84
2022-12-15T03:54:17.395Z,99290.10
2022-12-15T03:57:12.256Z,99291.83
2022-12-15T04:00:06.022Z,99299.59
2022-12-15T04:02:57.719Z,99300.82
2022-12-15T04:05:56.606Z,99298.14
2022-12-15T04:08:56.193Z,99301.96
2022-12-15T04:11:49.043Z,99305.95
2022-12-15T04:14:41.866Z,99308.40
2022-12-15T04:17:32.930Z,99312.91
2022-12-15T04:20:26.474Z,99314.70
2022-12-15T04:23:17.503Z,99318.20
2022-12-15T04:26:26.223Z,99329.21
2022-12-15T04:29:33.295Z,99335.82
2022-12-15T04:32:25.109Z,99334.90
2022-12-15T04:35:15.936Z,99333.27
2022-12-15T04:38:23.417Z,99339.71
2022-12-15T04:41:12.245Z,99348.00
2022-12-15T04:44:01.479Z,99347.21
2022-12-15T04:46:48.610Z,99351.55
2022-12-15T04:49:34.869Z,99346.66
2022-12-15T04:52:21.279Z,99352.33
2022-12-15T04:55:08.505Z,99357.00
2022-12-15T04:57:56.917Z,99355.36
2022-12-15T05:00:44.622Z,99355.07
2022-12-15T05:03:33.650Z,99363.66
2022-12-15T05:06:40.761Z,99367.66
2022-12-15T05:09:50.319Z,99372.33
2022-12-15T05:12:37.720Z,99379.90
2022-12-15T05:15:24.255Z,99386.27
2022-12-15T05:18:11.109Z,99387.30
2022-12-15T05:21:19.964Z,99394.52
2022-12-15T05:24:15.603Z,99392.50
2022-12-15T05:27:22.803Z,99381.91
2022-12-15T05:30:17.755Z,99389.48
2022-12-15T05:33:17.500Z,99390.23
2022-12-15T05:36:35.341Z,99402.09
2022-12-15T05:39:08.722Z,99400.80
2022-12-15T05:41:58.621Z,99407.16
2022-12-15T05:44:58.376Z,99411.51
2022-12-15T05:47:56.808Z,99420.98
2022-12-15T05:50:51.286Z,99427.67
2022-12-15T05:53:42.313Z,99427.91
2022-12-15T05:56:36.876Z,99433.44
2022-12-15T05:59:27.146Z,99428.48
2022-12-15T06:02:17.142Z,99433.63
2022-12-15T06:04:50.717Z,99439.51
2022-12-15T06:07:26.292Z,99444.33
2022-12-15T06:10:16.380Z,99452.04
2022-12-15T06:12:48.685Z,99458.23
2022-12-15T06:15:45.102Z,99459.28
2022-12-15T06:18:42.134Z,99473.86
2022-12-15T06:21:35.425Z,99481.59
2022-12-15T06:24:40.077Z,99493.25
2022-12-15T06:27:31.271Z,99497.36
2022-12-15T06:30:23.479Z,99506.45
2022-12-15T06:33:00.153Z,99507.34
2022-12-15T06:35:28.084Z,99515.81
2022-12-15T06:37:55.672Z,99515.20
2022-12-15T06:40:23.270Z,99519.23
2022-12-15T06:42:51.243Z,99526.30
2022-12-15T06:45:19.292Z,99521.88
2022-12-15T06:47:49.390Z,99523.27
2022-12-15T06:50:17.031Z,99526.75
2022-12-15T06:52:47.328Z,99539.83
2022-12-15T06:55:16.016Z,99549.46
2022-12-15T06:57:43.648Z,99549.34
2022-12-15T07:00:12.923Z,99545.98
2022-12-15T07:02:42.095Z,99543.27
2022-12-15T07:05:09.967Z,99544.13
2022-12-15T07:07:37.592Z,99544.67
2022-12-15T07:10:10.538Z,99544.66
2022-12-15T07:12:38.338Z,99546.55
2022-12-15T07:15:07.700Z,99550.86
2022-12-15T07:17:36.301Z,99554.67
2022-12-15T07:20:04.484Z,99560.01
2022-12-15T07:22:32.085Z,99557.42
2022-12-15T07:24:59.924Z,99560.00
2022-12-15T07:27:30.046Z,99564.02
2022-12-15T07:29:58.965Z,99570.94
2022-12-15T07:32:26.730Z,99572.70
2022-12-15T07:34:54.880Z,99584.73
2022-12-15T07:37:22.718Z,99591.46
2022-12-15T07:39:50.294Z,99592.49
2022-12-15T07:42:18.946Z,99596.00
2022-12-15T07:44:46.813Z,99600.50
2022-12-15T07:47:17.706Z,99606.52
2022-12-15T07:49:45.674Z,99602.62
2022-12-15T07:52:13.428Z,99605.40
2022-12-15T07:54:41.161Z,99601.86
2022-12-15T07:57:08.760Z,99610.45
2022-12-15T07:59:36.300Z,99613.69
2022-12-15T08:02:04.994Z,99616.27
2022-12-15T08:04:37.787Z,99625.56
2022-12-15T08:07:09.168Z,99631.58
2022-12-15T08:09:37.527Z,99633.86
2022-12-15T08:12:05.910Z,99638.53
2022-12-15T08:14:34.834Z,99640.48
2022-12-15T08:17:03.583Z,99642.91
2022-12-15T08:19:31.218Z,99641.47
2022-12-15T08:21:58.817Z,99641.75
2022-12-15T08:24:26.468Z,99642.67
2022-12-15T08:26:58.160Z,99644.05
2022-12-15T08:29:50.240Z,99649.02
2022-12-15T08:32:13.704Z,99654.67
2022-12-15T08:34:44.833Z,99657.17
2022-12-15T08:37:12.386Z,99653.00
2022-12-15T08:39:39.914Z,99657.48
2022-12-15T08:42:07.532Z,99664.48
2022-12-15T08:44:35.841Z,99662.27
2022-12-15T08:47:03.462Z,99661.06
2022-12-15T08:49:31.060Z,99661.75
2022-12-15T08:51:58.680Z,99660.90
2022-12-15T08:54:26.322Z,99664.49
2022-12-15T08:56:54.027Z,99667.21
2022-12-15T08:59:21.624Z,99667.66
2022-12-15T09:01:49.352Z,99667.88
2022-12-15T09:04:19.424Z,99671.85
2022-12-15T09:06:50.316Z,99674.82
2022-12-15T09:09:19.967Z,99675.36
2022-12-15T09:11:47.860Z,99677.62
2022-12-15T09:14:16.278Z,99682.42
2022-12-15T09:16:50.664Z,99690.95
2022-12-15T09:19:19.107Z,99692.09
2022-12-15T09:21:47.604Z,99691.17
2022-12-15T09:24:27.456Z,99695.59
2022-12-15T09:27:02.766Z,99696.62
2022-12-15T09:29:30.324Z,99700.52
2022-12-15T09:31:58.280Z,99700.15
2022-12-15T09:34:25.876Z,99696.77
2022-12-15T09:36:53.522Z,99692.12
2022-12-15T09:39:21.406Z,99697.36
2022-12-15T09:41:55.072Z,99701.27
2022-12-15T09:44:25.388Z,99702.12
2022-12-15T09:47:05.677Z,99698.42
2022-12-15T09:49:49.932Z,99703.23
2022-12-15T09:52:19.879Z,99700.19
2022-12-15T09:54:49.001Z,99701.62
2022-12-15T09:57:29.079Z,99702.17
2022-12-15T10:00:07.040Z,99695.80
2022-12-15T10:03:22.999Z,99698.44
2022-12-15T10:08:54.137Z,99697.76
2022-12-15T10:11:35.976Z,99692.23
2022-12-15T10:14:12.837Z,99699.08
2022-12-15T10:16:58.005Z,99698.09
2022-12-15T10:19:37.081Z,99698.73
2022-12-15T10:22:10.207Z,99702.66
2022-12-15T10:25:08.445Z,99709.20
2022-12-15T10:28:00.449Z,99709.09
2022-12-15T10:30:28.189Z,99712.25
2022-12-15T10:33:01.478Z,99717.15
2022-12-15T10:35:32.018Z,99719.88
2022-12-15T10:38:02.931Z,99726.11
2022-12-15T10:40:51.198Z,99723.11
2022-12-15T10:43:26.731Z,99717.36
2022-12-15T10:46:12.943Z,99711.30
2022-12-15T10:48:41.438Z,99714.27
2022-12-15T10:51:21.554Z,99710.67
2022-12-15T10:53:52.185Z,99712.84
2022-12-15T10:56:30.630Z,99713.86
2022-12-15T10:59:24.128Z,99717.77
2022-12-15T11:01:52.673Z,99721.98
2022-12-15T11:04:28.732Z,99724.98
2022-12-15T11:07:00.733Z,99730.35
2022-12-15T11:09:33.791Z,99731.48
2022-12-15T11:12:26.314Z,99732.48
2022-12-15T11:14:53.850Z,99737.30
2022-12-15T11:17:23.179Z,99747.44
2022-12-15T11:20:03.111Z,99747.11
2022-12-15T11:22:52.858Z,99742.45
2022-12-15T11:25:33.560Z,99748.09
2022-12-15T11:28:06.561Z,99760.02
2022-12-15T11:30:44.809Z,99761.21
2022-12-15T11:33:12.829Z,99751.13
2022-12-15T11:35:58.020Z,99751.23
2022-12-15T11:38:34.418Z,99756.29
2022-12-15T11:41:08.679Z,99759.20
2022-12-15T11:43:54.690Z,99760.52
2022-12-15T11:46:33.035Z,99761.52
2022-12-15T11:49:19.611Z,99765.30
2022-12-15T11:51:55.028Z,99769.09
2022-12-15T11:54:30.106Z,99775.95
2022-12-15T11:57:04.129Z,99777.84
2022-12-15T11:59:54.774Z,99781.42
2022-12-15T12:02:49.893Z,99788.05
2022-12-15T12:05:38.959Z,99786.63
2022-12-15T12:08:21.989Z,99780.16
2022-12-15T12:10:59.254Z,99774.83
2022-12-15T12:13:35.978Z,99771.36
2022-12-15T12:16:14.818Z,99770.77
2022-12-15T12:18:50.636Z,99769.66
2022-12-15T12:21:23.491Z,99776.05
2022-12-15T12:23:58.630Z,99775.30
2022-12-15T12:26:32.534Z,99776.40
2022-12-15T12:29:08.329Z,99772.73
2022-12-15T12:31:45.104Z,99760.88
2022-12-15T12:34:15.337Z,99765.09
2022-12-15T12:36:44.482Z,99754.14
2022-12-15T12:39:23.601Z,99748.54
2022-12-15T12:42:03.141Z,99751.92
2022-12-15T12:44:33.710Z,99750.73
2022-12-15T12:47:12.632Z,99751.27
2022-12-15T12:49:44.845Z,99754.85
2022-12-15T12:52:21.930Z,99754.14
2022-12-15T12:54:56.856Z,99750.61
2022-12-15T12:57:42.357Z,99742.28
2022-12-15T13:00:19.953Z,99729.86
2022-12-15T13:03:19.832Z,99729.31
2022-12-15T13:05:50.968Z,99729.30
2022-12-15T13:08:42.196Z,99728.95
2022-12-15T13:11:42.006Z,99721.74
2022-12-15T13:14:22.541Z,99719.78
2022-12-15T13:17:25.602Z,99728.80
2022-12-15T13:20:28.672Z,99732.41
2022-12-15T13:23:11.622Z,99731.01
2022-12-15T13:25:41.600Z,99732.61
2022-12-15T13:28:24.888Z,99734.02
2022-12-15T13:31:31.985Z,99740.30
2022-12-15T13:34:20.885Z,99744.10
2022-12-15T13:36:55.109Z,99743.71
2022-12-15T13:39:54.956Z,99747.37
2022-12-15T13:42:34.949Z,99755.77
2022-12-15T13:45:28.705Z,99759.48
2022-12-15T13:47:56.809Z,99762.09
2022-12-15T13:50:43.813Z,99763.45
2022-12-15T13:53:19.690Z,99769.66
2022-12-15T13:56:00.530Z,99774.16
2022-12-15T13:58:33.491Z,99772.78
2022-12-15T14:01:03.155Z,99779.77
2022-12-15T14:03:31.536Z,99787.22
2022-12-15T14:06:01.043Z,99791.25
2022-12-15T14:08:31.141Z,99793.40
2022-12-15T14:11:07.045Z,99793.09
2022-12-15T14:13:46.924Z,99800.38
2022-12-15T14:16:22.324Z,99808.05
2022-12-15T14:19:12.935Z,99812.94
2022-12-15T14:21:47.684Z,99813.09
2022-12-15T14:24:39.070Z,99819.56
2022-12-15T14:27:07.879Z,99826.05
2022-12-15T14:29:35.845Z,99831.77
2022-12-15T14:32:04.889Z,99832.70
2022-12-15T14:34:38.173Z,99835.48
2022-12-15T14:37:12.719Z,99832.78
2022-12-15T14:39:44.375Z,99836.41
2022-12-15T14:42:21.355Z,99845.73
2022-12-15T14:44:51.341Z,99846.13
2022-12-15T14:47:26.124Z,99846.48
2022-12-15T14:49:56.016Z,99845.30
2022-12-15T14:52:29.735Z,99849.81
2022-12-15T14:55:07.272Z,99854.86
2022-12-15T14:57:43.476Z,99856.27
2022-12-15T15:00:25.583Z,99863.04
2022-12-15T15:03:10.218Z,99700.58
2022-12-15T15:03:19.736Z,99866.00
2022-12-15T15:05:54.583Z,99866.40
2022-12-15T15:08:29.808Z,99868.77
2022-12-15T15:11:00.771Z,99870.08
2022-12-15T15:13:39.850Z,99876.52
2022-12-15T15:16:15.120Z,99880.08
2022-12-15T15:18:44.489Z,99883.61
2022-12-15T15:21:17.838Z,99883.03
2022-12-15T15:24:00.457Z,99879.86
2022-12-15T15:26:28.798Z,99880.19
2022-12-15T15:28:56.921Z,99878.80
2022-12-15T15:31:35.251Z,99874.30
2022-12-15T15:34:10.695Z,99868.79
2022-12-15T15:36:39.513Z,99869.32
2022-12-15T15:39:15.050Z,99876.31
2022-12-15T15:41:43.046Z,99872.70
2022-12-15T15:44:14.169Z,99872.39
2022-12-15T15:46:46.650Z,99865.73
2022-12-15T15:49:21.294Z,99865.44
2022-12-15T15:52:21.233Z,99865.27
2022-12-15T15:54:53.044Z,99860.88
2022-12-15T15:57:33.872Z,99865.34
2022-12-15T16:00:08.831Z,99863.55
2022-12-15T16:02:57.208Z,99858.52
2022-12-15T16:05:27.832Z,99851.75
2022-12-15T16:08:32.222Z,99852.16
2022-12-15T16:11:34.616Z,99849.81
2022-12-15T16:14:25.834Z,99856.05
2022-12-15T16:17:16.422Z,99856.02
2022-12-15T16:20:09.933Z,99850.23
2022-12-15T16:22:40.952Z,99848.80
2022-12-15T16:25:46.643Z,99850.48
2022-12-15T16:28:30.359Z,99850.85
2022-12-15T16:31:41.736Z,99862.24
2022-12-15T16:34:18.784Z,99868.88
2022-12-15T16:37:26.828Z,99881.09
2022-12-15T16:40:23.638Z,99890.10
2022-12-15T16:43:15.942Z,99898.11
2022-12-15T16:46:07.040Z,99896.27
2022-12-15T16:49:02.389Z,99901.40
2022-12-15T16:51:58.941Z,99902.37
2022-12-15T16:54:49.238Z,99902.48
2022-12-15T16:57:37.330Z,99910.36
2022-12-15T17:00:29.636Z,99915.24
2022-12-15T17:03:28.044Z,99911.78
2022-12-15T17:06:20.297Z,99916.25
2022-12-15T17:09:16.717Z,99916.42
2022-12-15T17:12:11.094Z,99913.75
2022-12-15T17:15:05.663Z,99911.23
2022-12-15T17:17:52.431Z,99903.23
2022-12-15T17:20:44.661Z,99893.86
2022-12-15T17:23:22.521Z,99897.35
2022-12-15T17:26:29.657Z,99905.31
2022-12-15T17:29:33.665Z,99903.70
2022-12-15T17:32:02.926Z,99905.34
2022-12-15T17:34:56.374Z,99908.17
2022-12-15T17:37:48.642Z,99914.13
2022-12-15T17:40:45.230Z,99915.90
2022-12-15T17:43:17.619Z,99915.79
2022-12-15T17:46:11.660Z,99920.73
2022-12-15T17:48:40.130Z,99916.83
2022-12-15T17:51:33.277Z,99907.98
2022-12-15T17:54:24.235Z,99909.73
2022-12-15T17:56:59.436Z,99908.10
2022-12-15T17:59:50.003Z,99906.43
2022-12-15T18:02:45.415Z,99914.15
2022-12-15T18:05:34.683Z,99918.14
2022-12-15T18:08:25.808Z,99917.80
2022-12-15T18:11:23.474Z,99916.70
2022-12-15T18:14:21.332Z,99914.38
2022-12-15T18:20:28.831Z,99906.55
2022-12-15T18:23:23.831Z,99908.09
2022-12-15T18:26:19.098Z,99910.30
2022-12-15T18:32:25.011Z,99910.02
2022-12-15T18:35:39.458Z,99913.21
2022-12-15T18:38:20.975Z,99909.98
2022-12-15T18:40:54.264Z,99913.31
2022-12-15T18:43:33.645Z,99918.75
2022-12-15T18:46:29.705Z,99916.11
2022-12-15T18:49:27.855Z,99917.19
2022-12-15T18:52:18.259Z,99913.98
2022-12-15T18:58:54.852Z,99921.01
2022-12-15T19:02:04.225Z,99933.45
2022-12-15T19:08:01.085Z,99926.20
2022-12-15T19:10:46.168Z,99917.02
2022-12-15T19:14:05.104Z,99912.13
2022-12-15T19:17:13.372Z,99911.23
2022-12-15T19:20:20.193Z,99909.36
2022-12-15T19:26:28.592Z,99916.55
2022-12-15T19:32:38.687Z,99903.02
2022-12-15T19:35:29.862Z,99902.20
2022-12-15T19:41:17.654Z,99906.85
2022-12-15T19:44:11.654Z,99910.99
2022-12-15T19:53:55.199Z,99907.91
2022-12-15T19:57:04.543Z,99907.75
2022-12-15T20:03:56.306Z,99907.77
2022-12-15T20:17:11.039Z,99896.45
2022-12-15T20:23:17.397Z,99878.19
2022-12-15T20:26:13.474Z,99868.07
2022-12-15T20:32:42.279Z,99863.17
2022-12-15T20:39:33.067Z,99852.36
2022-12-15T20:42:32.799Z,99852.63
2022-12-15T20:45:37.529Z,99853.90
2022-12-15T20:48:57.942Z,99872.38
2022-12-15T20:51:57.272Z,99874.00
2022-12-15T20:54:45.631Z,99865.83
2022-12-15T20:57:31.943Z,99865.22
2022-12-15T21:00:48.602Z,99864.11
2022-12-15T21:03:55.615Z,99874.83
2022-12-15T21:10:19.773Z,99869.21
2022-12-15T21:21:04.998Z,99866.47
2022-12-15T21:28:12.056Z,99864.92
2022-12-15T21:31:43.689Z,99881.15
2022-12-15T21:34:36.022Z,99882.88
2022-12-15T21:37:45.868Z,99884.21
2022-12-15T21:41:07.577Z,99882.92
2022-12-15T21:51:36.270Z,99876.30
2022-12-15T21:58:24.540Z,99865.04
2022-12-15T22:01:35.801Z,99867.20
2022-12-15T22:14:07.229Z,99838.30
2022-12-15T22:16:52.542Z,99834.29
2022-12-15T22:19:34.288Z,99832.41
2022-12-15T22:22:30.122Z,99834.63
2022-12-15T22:26:57.767Z,99834.54
2022-12-15T22:29:49.717Z,99829.95
2022-12-15T22:32:32.026Z,99829.17
2022-12-15T22:35:33.271Z,99834.69
2022-12-15T22:38:13.362Z,99835.63
2022-12-15T22:41:06.687Z,99831.88
2022-12-15T22:43:55.270Z,99831.13
2022-12-15T22:46:40.100Z,99827.54
2022-12-15T22:52:26.834Z,99817.98
2022-12-15T22:55:22.248Z,99816.84
2022-12-15T22:58:05.412Z,99824.92
2022-12-15T23:00:53.324Z,99820.85
2022-12-15T23:03:41.740Z,99811.00
2022-12-15T23:06:30.684Z,99803.21
2022-12-15T23:09:36.937Z,99808.04
2022-12-15T23:12:32.966Z,99817.80
2022-12-15T23:15:37.278Z,99823.02
2022-12-15T23:18:13.006Z,99820.21
2022-12-15T23:21:02.586Z,99821.45
2022-12-15T23:23:42.224Z,99812.63
2022-12-15T23:26:22.467Z,99813.50
2022-12-15T23:29:11.749Z,99806.25
2022-12-15T23:31:51.564Z,99806.18
2022-12-15T23:34:24.328Z,99803.77
2022-12-15T23:37:05.427Z,99813.11
2022-12-15T23:39:38.143Z,99820.11
2022-12-15T23:42:08.662Z,99822.96
2022-12-15T23:44:43.914Z,99827.57
2022-12-15T23:47:16.434Z,99823.16
2022-12-15T23:49:46.937Z,99818.48
2022-12-15T23:52:20.010Z,99811.70
2022-12-15T23:54:50.751Z,99816.87
2022-12-15T23:57:21.842Z,99820.64
2022-12-15T23:59:52.808Z,99820.99
